Overview Statistics Trail Chart Weather Telemetry Raw packets
 

This is the latest recevied weather packets stored in our database for station/object W5DNT. If no packets are shown the sender has not sent any weather packets the latest 10 day(s).

<< 28 29 30 31 32 33 34 >>
Time Temp. Humidity Pressure Rain* Wind** Luminosity Snow
1787976965 28.33° C 61% 1015.7 hPa 0 mm - - -
1787976094 28.33° C 61% 1015.7 hPa 0 mm - - -
1787975160 28.89° C 59% 1015.5 hPa 0 mm - - -
1787974261 29.44° C 59% 1015.2 hPa 0 mm - - -
1787973357 30° C 57% 1015 hPa 0 mm - - -
1787972457 30.56° C 57% 1014.9 hPa 0 mm - - -
1787971556 31.11° C 55% 1014.6 hPa 0 mm - - -
1787970656 31.67° C 53% 1014.4 hPa 0 mm - - -
1787969756 31.67° C 50% 1014.1 hPa 0 mm - - -
1787968855 31.67° C 44% 1013.5 hPa 0 mm - - -
1787967960 32.22° C 42% 1013.2 hPa 0 mm - - -
1787967054 33.33° C 40% 1013.1 hPa 0 mm - - -
1787966158 33.89° C 40% 1012.9 hPa 0 mm - - -
1787965252 34.44° C 39% 1012.8 hPa 0 mm - - -
1787964352 35° C 39% 1012.7 hPa 0 mm - - -
1787963451 35.56° C 37% 1012.6 hPa 0 mm - - -
1787962555 36.11° C 35% 1012.6 hPa 0 mm - - -
1787961670 36.11° C 35% 1012.5 hPa 0 mm - - -
1787960750 36.67° C 34% 1012.5 hPa 0 mm - - -
1787959851 36.67° C 34% 1012.5 hPa 0 mm - - -
1787958948 36.67° C 34% 1012.7 hPa 0 mm - - -
1787958055 36.67° C 34% 1012.7 hPa 0 mm - - -
1787957158 37.78° C 34% 1012.5 hPa 0 mm - - -
1787956246 37.78° C 32% 1012.4 hPa 0 mm - - -
1787955351 37.78° C 34% 1012.5 hPa 0 mm - - -

* Rain latest hour (hover to see other rain measurements)
** Current wind speed in m/s (hover to see current wind gust speed)